Time;durP1;ratioP1;P1;durP2;ratioP2;P2;SDS_P1;SDS_P2;PMS_P1;PMS_P2;Temp;Humidity;BMP_temperature;BMP_pressure;BME280_temperature;BME280_humidity;BME280_pressure;Samples;Min_cycle;Max_cycle;Signal;HPM_P1;HPM_P2
2021/06/02 00:00:16;;;;;;;5.50;4.90;;;14.30;99.90;;;;;;5030894;28;20178;-65
2021/06/02 00:02:47;;;;;;;5.80;5.40;;;14.30;99.90;;;;;;5031604;28;20184;-65
2021/06/02 00:05:14;;;;;;;7.83;4.90;;;14.30;99.90;;;;;;5031820;28;20470;-65
2021/06/02 00:07:41;;;;;;;6.20;5.67;;;14.20;99.90;;;;;;5031595;28;20417;-65
2021/06/02 00:10:09;;;;;;;4.90;4.50;;;14.10;99.90;;;;;;5030713;28;20417;-65
2021/06/02 00:12:35;;;;;;;10.00;5.87;;;14.10;99.90;;;;;;5031286;28;20535;-65
2021/06/02 00:15:02;;;;;;;6.20;5.70;;;14.00;99.90;;;;;;5031925;28;20477;-65
2021/06/02 00:17:28;;;;;;;6.03;5.43;;;14.00;99.90;;;;;;5031496;28;20424;-65
2021/06/02 00:19:54;;;;;;;5.97;5.47;;;14.10;99.90;;;;;;5030586;28;20826;-65
2021/06/02 00:22:20;;;;;;;6.03;5.43;;;14.10;99.90;;;;;;5031278;28;20171;-65
2021/06/02 00:24:45;;;;;;;6.73;6.03;;;14.10;99.90;;;;;;5031190;28;20861;-65
2021/06/02 00:27:12;;;;;;;5.67;5.27;;;14.10;99.90;;;;;;5031237;28;20264;-65
2021/06/02 00:29:42;;;;;;;5.60;4.97;;;14.10;99.90;;;;;;5030771;28;20185;-65
2021/06/02 00:32:08;;;;;;;6.20;5.80;;;14.00;99.90;;;;;;5031453;28;20538;-65
2021/06/02 00:34:36;;;;;;;6.00;5.50;;;14.00;99.90;;;;;;5066001;23;20491;-64
2021/06/02 00:37:05;;;;;;;6.13;5.53;;;14.00;99.90;;;;;;5051408;28;20411;-66
2021/06/02 00:39:31;;;;;;;6.57;5.93;;;13.80;99.90;;;;;;5050181;28;20448;-63
2021/06/02 00:41:57;;;;;;;5.83;5.33;;;13.80;99.90;;;;;;5050818;28;20814;-63
2021/06/02 00:44:23;;;;;;;6.33;5.00;;;13.70;99.90;;;;;;5063647;28;20975;-66
2021/06/02 00:46:50;;;;;;;6.73;6.10;;;13.60;99.90;;;;;;5071225;28;20434;-63
2021/06/02 00:49:23;;;;;;;6.07;5.50;;;13.60;99.90;;;;;;5068992;28;20419;-66
2021/06/02 00:52:04;;;;;;;7.13;5.50;;;13.40;99.90;;;;;;5070583;28;20534;-65
2021/06/02 00:54:32;;;;;;;5.83;5.27;;;13.40;99.90;;;;;;5070696;28;20493;-65
2021/06/02 00:57:15;;;;;;;5.80;5.30;;;13.30;99.90;;;;;;5070860;28;20411;-65
2021/06/02 00:59:49;;;;;;;5.00;4.60;;;13.30;99.90;;;;;;5070138;28;20927;-65
2021/06/02 01:02:19;;;;;;;8.27;5.63;;;13.30;99.90;;;;;;5071303;28;20932;-65
2021/06/02 01:04:48;;;;;;;6.07;5.47;;;13.30;99.90;;;;;;5070656;28;20435;-65
2021/06/02 01:07:14;;;;;;;6.33;5.83;;;13.30;99.90;;;;;;5070634;28;20454;-65
2021/06/02 01:09:48;;;;;;;5.03;4.63;;;13.20;99.90;;;;;;5070049;28;20822;-65
2021/06/02 01:12:16;;;;;;;7.53;6.80;;;13.00;99.90;;;;;;5070569;28;20206;-65
2021/06/02 01:14:42;;;;;;;6.30;5.70;;;12.90;99.90;;;;;;5070695;28;20966;-65
2021/06/02 01:17:12;;;;;;;5.70;5.20;;;12.90;99.90;;;;;;5070625;28;20411;-65
2021/06/02 01:19:38;;;;;;;5.40;4.90;;;12.90;99.90;;;;;;5070409;28;20797;-65
2021/06/02 01:22:04;;;;;;;5.90;5.40;;;12.90;99.90;;;;;;5073106;28;20813;-63
2021/06/02 01:24:31;;;;;;;5.77;5.27;;;13.00;99.90;;;;;;5074692;28;20513;-65
2021/06/02 01:26:58;;;;;;;5.60;5.13;;;13.00;99.90;;;;;;5074629;28;20172;-65
2021/06/02 01:29:26;;;;;;;5.87;5.10;;;13.00;99.90;;;;;;5073855;28;20935;-65
2021/06/02 01:32:29;;;;;;;5.93;5.40;;;12.90;99.90;;;;;;5074361;28;20451;-65
2021/06/02 01:35:32;;;;;;;5.10;4.53;;;12.80;99.90;;;;;;5074326;28;20442;-65
2021/06/02 01:38:37;;;;;;;5.87;5.37;;;12.70;99.90;;;;;;5074419;28;20512;-65
2021/06/02 01:41:15;;;;;;;6.10;4.97;;;12.70;99.90;;;;;;5074309;28;20411;-65
2021/06/02 01:44:17;;;;;;;5.53;5.13;;;12.60;99.90;;;;;;5074226;28;20521;-65
2021/06/02 01:47:06;;;;;;;5.47;4.97;;;12.60;99.90;;;;;;5074639;28;20784;-63
2021/06/02 01:50:09;;;;;;;5.30;4.80;;;12.60;99.90;;;;;;5073794;28;20484;-65
2021/06/02 01:53:03;;;;;;;5.83;5.33;;;12.50;99.90;;;;;;5073910;28;21049;-65
2021/06/02 01:56:07;;;;;;;7.23;6.10;;;12.30;99.90;;;;;;5074155;28;20418;-65
2021/06/02 01:59:00;;;;;;;5.70;5.20;;;12.30;99.90;;;;;;5070709;28;20423;-65
2021/06/02 02:01:33;;;;;;;6.10;5.60;;;12.20;99.90;;;;;;5074154;28;20818;-66
2021/06/02 02:04:32;;;;;;;6.90;6.37;;;12.20;99.90;;;;;;5073771;28;20434;-66
2021/06/02 02:07:34;;;;;;;6.60;6.00;;;12.20;99.90;;;;;;5073940;28;20926;-65
2021/06/02 02:10:37;;;;;;;5.30;4.90;;;12.20;99.90;;;;;;5073337;28;20911;-65
2021/06/02 02:13:44;;;;;;;8.00;6.10;;;12.20;99.90;;;;;;5062831;28;20465;-65
2021/06/02 02:16:21;;;;;;;7.17;5.43;;;12.20;99.90;;;;;;5053188;28;20462;-66
2021/06/02 02:18:56;;;;;;;6.33;5.73;;;12.10;99.90;;;;;;5052989;28;20408;-65
2021/06/02 02:21:42;;;;;;;9.20;4.97;;;12.00;99.90;;;;;;5053604;28;20549;-66
2021/06/02 02:24:23;;;;;;;5.70;5.20;;;12.00;99.90;;;;;;5053589;28;20924;-66
2021/06/02 02:27:07;;;;;;;5.67;5.20;;;11.90;99.90;;;;;;5053683;28;20466;-65
2021/06/02 02:30:06;;;;;;;6.90;5.40;;;11.90;99.90;;;;;;5052952;28;20427;-65
2021/06/02 02:32:48;;;;;;;6.17;5.70;;;12.00;99.90;;;;;;5052458;28;20456;-66
2021/06/02 02:35:34;;;;;;;5.80;5.27;;;11.90;99.90;;;;;;5053242;28;20463;-66
2021/06/02 02:38:15;;;;;;;6.20;5.70;;;11.80;99.90;;;;;;5053158;28;20917;-65
2021/06/02 02:41:08;;;;;;;6.30;5.80;;;11.80;99.90;;;;;;5052516;28;20507;-65
2021/06/02 02:43:42;;;;;;;5.90;5.50;;;11.80;99.90;;;;;;5053054;28;20424;-64
2021/06/02 02:46:37;;;;;;;5.83;5.23;;;11.80;99.90;;;;;;5053475;28;20415;-66
2021/06/02 02:49:08;;;;;;;5.87;5.27;;;11.70;99.90;;;;;;5052393;28;20733;-65
2021/06/02 02:52:02;;;;;;;6.70;6.10;;;11.70;99.90;;;;;;5053106;28;20815;-66
2021/06/02 02:54:38;;;;;;;5.93;5.33;;;11.60;99.90;;;;;;5053067;28;21013;-65
2021/06/02 02:57:30;;;;;;;7.00;6.30;;;11.60;99.90;;;;;;5053158;28;20495;-65
2021/06/02 03:00:12;;;;;;;7.70;6.10;;;11.50;99.90;;;;;;5043095;28;20439;-66
2021/06/02 03:03:04;;;;;;;4.93;4.63;;;11.40;99.90;;;;;;5053096;28;20448;-65
2021/06/02 03:05:33;;;;;;;5.70;5.30;;;11.40;99.90;;;;;;5052781;28;20772;-65
2021/06/02 03:08:30;;;;;;;6.20;5.10;;;11.50;99.90;;;;;;5052681;28;20928;-66
2021/06/02 03:11:13;;;;;;;6.57;5.97;;;11.40;99.90;;;;;;5052006;28;20419;-66
2021/06/02 03:13:47;;;;;;;5.70;5.20;;;11.40;99.90;;;;;;5068302;28;20844;-65
2021/06/02 03:16:20;;;;;;;6.80;6.20;;;11.50;99.90;;;;;;5072783;28;20772;-66
2021/06/02 03:19:06;;;;;;;7.73;6.33;;;11.50;99.90;;;;;;5072117;28;20411;-65
2021/06/02 03:21:40;;;;;;;7.67;5.80;;;11.40;99.90;;;;;;5072536;28;20411;-66
2021/06/02 03:24:28;;;;;;;6.07;5.57;;;11.30;99.90;;;;;;5072181;28;20438;-66
2021/06/02 03:27:10;;;;;;;6.30;5.67;;;11.40;99.90;;;;;;5072503;28;20411;-65
2021/06/02 03:30:02;;;;;;;7.70;5.60;;;11.30;99.90;;;;;;5071589;28;20403;-66
2021/06/02 03:32:48;;;;;;;6.07;5.50;;;11.30;99.90;;;;;;5072234;28;20817;-66
2021/06/02 03:35:39;;;;;;;6.30;5.70;;;11.30;99.90;;;;;;5072204;28;20446;-65
2021/06/02 03:38:42;;;;;;;10.60;6.07;;;11.30;99.90;;;;;;5068129;28;20451;-65
2021/06/02 03:41:21;;;;;;;6.30;5.70;;;11.30;99.90;;;;;;5071778;28;20788;-65
2021/06/02 03:43:48;;;;;;;6.13;5.60;;;11.40;99.90;;;;;;5071461;28;20431;-65
2021/06/02 03:46:26;;;;;;;7.00;6.30;;;11.40;99.90;;;;;;5071920;28;20429;-65
2021/06/02 03:48:54;;;;;;;5.93;5.43;;;11.40;99.90;;;;;;5071352;28;20715;-66
2021/06/02 03:51:37;;;;;;;5.53;5.10;;;11.30;99.90;;;;;;5071646;28;20979;-66
2021/06/02 03:54:07;;;;;;;6.40;5.90;;;11.30;99.90;;;;;;5071582;28;20504;-65
2021/06/02 03:56:57;;;;;;;6.97;5.63;;;11.30;99.90;;;;;;5071818;28;20430;-66
2021/06/02 03:59:52;;;;;;;6.30;5.67;;;11.40;99.90;;;;;;5056751;28;20913;-66
2021/06/02 04:02:34;;;;;;;6.80;6.20;;;11.60;99.90;;;;;;5051734;28;20469;-66
2021/06/02 04:05:06;;;;;;;6.73;6.13;;;11.70;99.90;;;;;;5051654;28;20432;-66
2021/06/02 04:08:04;;;;;;;6.17;5.67;;;11.80;99.90;;;;;;5051634;28;20423;-66
2021/06/02 04:10:59;;;;;;;6.10;5.50;;;11.90;99.90;;;;;;5050769;28;20423;-66
2021/06/02 04:13:34;;;;;;;8.50;6.10;;;12.00;99.90;;;;;;5051499;28;20494;-66
2021/06/02 04:16:15;;;;;;;5.60;5.13;;;12.20;99.90;;;;;;5078609;28;20969;-65
2021/06/02 04:18:46;;;;;;;8.90;5.80;;;12.20;99.90;;;;;;5091259;28;20510;-65
2021/06/02 04:21:15;;;;;;;5.93;5.43;;;12.30;99.90;;;;;;5079710;28;20958;-66
2021/06/02 04:23:43;;;;;;;6.40;5.90;;;12.40;99.90;;;;;;5080872;28;20459;-65
2021/06/02 04:26:09;;;;;;;11.10;5.20;;;12.50;99.90;;;;;;5086126;28;20430;-66
2021/06/02 04:28:36;;;;;;;7.00;6.30;;;12.60;99.90;;;;;;5082819;28;20437;-66
2021/06/02 04:31:05;;;;;;;5.73;5.10;;;12.70;99.90;;;;;;5076642;28;20428;-66
2021/06/02 04:33:33;;;;;;;7.07;6.47;;;12.90;99.90;;;;;;5085630;28;20974;-65
2021/06/02 04:36:00;;;;;;;6.80;6.10;;;13.10;99.90;;;;;;5089670;28;20426;-65
2021/06/02 04:38:26;;;;;;;7.23;6.33;;;13.30;99.90;;;;;;5086128;28;20511;-66
2021/06/02 04:40:53;;;;;;;6.27;5.20;;;13.40;99.90;;;;;;5073503;28;20459;-65
2021/06/02 04:43:22;;;;;;;6.23;5.73;;;13.60;99.90;;;;;;5080579;28;20451;-65
2021/06/02 04:45:56;;;;;;;7.70;5.33;;;13.80;99.90;;;;;;5068052;28;20443;-66
2021/06/02 04:48:23;;;;;;;7.97;7.17;;;13.90;99.90;;;;;;5054861;28;20423;-65
2021/06/02 04:50:55;;;;;;;5.90;5.40;;;14.00;99.90;;;;;;5051902;28;20442;-63
2021/06/02 04:53:42;;;;;;;7.67;6.27;;;14.20;99.90;;;;;;5067843;28;20462;-65
2021/06/02 04:56:38;;;;;;;5.70;5.20;;;14.30;99.90;;;;;;5061312;28;20430;-65
2021/06/02 04:59:54;;;;;;;10.13;6.60;;;14.50;99.90;;;;;;5055279;28;20553;-65
2021/06/02 05:02:57;;;;;;;9.53;5.80;;;14.80;99.90;;;;;;5016539;28;20500;-65
2021/06/02 05:05:54;;;;;;;6.27;5.70;;;15.00;99.90;;;;;;4978911;28;20412;-65
2021/06/02 05:08:57;;;;;;;7.60;5.90;;;15.10;99.90;;;;;;5049526;28;20959;-65
2021/06/02 05:12:01;;;;;;;8.77;5.80;;;15.30;99.90;;;;;;5058093;28;20464;-65
2021/06/02 05:15:04;;;;;;;7.13;5.23;;;15.30;99.90;;;;;;5058673;28;20445;-65
2021/06/02 05:17:53;;;;;;;5.80;5.10;;;15.40;99.90;;;;;;5069227;28;20873;-64
2021/06/02 05:24:15;;;;;;;9.63;6.17;;;16.00;99.90;;;;;;5070652;28;20434;-65
2021/06/02 05:27:18;;;;;;;8.07;6.00;;;15.80;99.90;;;;;;5070608;28;20438;-65
2021/06/02 05:30:06;;;;;;;5.03;4.50;;;15.80;99.90;;;;;;5069799;28;20407;-64
2021/06/02 05:32:50;;;;;;;7.27;4.93;;;15.90;99.90;;;;;;5070549;28;20524;-64
2021/06/02 05:35:48;;;;;;;8.13;5.30;;;16.10;99.90;;;;;;5070413;28;20423;-65
2021/06/02 05:38:49;;;;;;;6.97;5.40;;;16.30;99.90;;;;;;5069191;28;20425;-66
2021/06/02 05:41:40;;;;;;;6.57;5.63;;;16.70;99.90;;;;;;5070460;28;20421;-67
2021/06/02 05:44:27;;;;;;;5.90;5.40;;;17.00;99.90;;;;;;5056601;28;20443;-65
2021/06/02 05:47:18;;;;;;;5.23;4.80;;;17.40;99.90;;;;;;5050297;28;20400;-65
2021/06/02 05:49:56;;;;;;;6.33;5.30;;;17.60;99.90;;;;;;5049931;28;20447;-65
2021/06/02 05:52:36;;;;;;;6.80;5.97;;;17.70;99.90;;;;;;5050393;28;20452;-65
2021/06/02 05:55:01;;;;;;;5.67;5.13;;;17.70;99.90;;;;;;5058388;28;20443;-66
2021/06/02 05:57:46;;;;;;;8.23;7.43;;;17.80;99.90;;;;;;5059108;28;20477;-65
2021/06/02 06:00:52;;;;;;;7.10;5.60;;;18.00;99.90;;;;;;5049455;28;20166;-65
2021/06/02 06:03:45;;;;;;;6.53;4.67;;;18.30;99.90;;;;;;5039703;28;20446;-65
2021/06/02 06:06:32;;;;;;;6.97;6.37;;;18.40;99.90;;;;;;5068735;28;20418;-65
2021/06/02 06:09:48;;;;;;;6.30;5.70;;;18.60;99.90;;;;;;5072457;28;20425;-65
2021/06/02 06:12:13;;;;;;;7.40;5.40;;;18.70;99.90;;;;;;5069626;28;20888;-65
2021/06/02 06:14:58;;;;;;;7.70;4.80;;;18.90;99.90;;;;;;5073342;28;20456;-65
2021/06/02 06:17:52;;;;;;;7.50;6.10;;;18.90;99.90;;;;;;5073392;28;20164;-65
2021/06/02 06:20:39;;;;;;;10.30;4.90;;;19.10;99.90;;;;;;5072923;28;20534;-65
2021/06/02 06:23:15;;;;;;;7.20;4.80;;;19.00;99.00;;;;;;5069897;28;20933;-65
2021/06/02 06:25:58;;;;;;;5.23;4.73;;;18.90;99.20;;;;;;5073555;28;20978;-65
2021/06/02 06:28:34;;;;;;;8.17;4.13;;;19.20;98.40;;;;;;5073402;28;20418;-65
2021/06/02 06:31:01;;;;;;;5.53;4.30;;;19.40;97.20;;;;;;5072646;28;20452;-65
2021/06/02 06:33:27;;;;;;;5.00;3.83;;;19.50;97.30;;;;;;5105833;23;20521;-63
2021/06/02 06:35:55;;;;;;;4.30;3.90;;;19.70;96.80;;;;;;5032770;28;20843;-63
2021/06/02 06:38:55;;;;;;;4.43;4.03;;;19.70;94.70;;;;;;5033272;28;20428;-63
2021/06/02 06:41:24;;;;;;;4.37;3.53;;;19.40;93.30;;;;;;5030436;28;20947;-65
2021/06/02 06:43:53;;;;;;;3.30;3.00;;;19.40;91.80;;;;;;5032833;28;20441;-64
2021/06/02 06:46:22;;;;;;;4.97;4.20;;;19.50;91.90;;;;;;5033028;28;20410;-63
2021/06/02 06:48:49;;;;;;;5.97;4.20;;;19.60;91.40;;;;;;5032875;28;20953;-63
2021/06/02 06:51:18;;;;;;;6.10;3.67;;;19.70;90.70;;;;;;5031449;28;20498;-64
2021/06/02 06:53:45;;;;;;;3.73;3.43;;;19.70;90.40;;;;;;5011190;28;20446;-63
2021/06/02 06:56:12;;;;;;;4.20;3.80;;;19.80;90.10;;;;;;5013098;28;20488;-63
2021/06/02 06:58:38;;;;;;;5.63;3.80;;;20.00;91.00;;;;;;5012792;28;20445;-64
2021/06/02 07:01:04;;;;;;;4.50;4.10;;;20.20;91.20;;;;;;5012786;28;20632;-64
2021/06/02 07:03:30;;;;;;;4.00;3.70;;;20.60;90.60;;;;;;5027269;28;20185;-64
2021/06/02 07:06:00;;;;;;;6.33;3.73;;;20.90;90.50;;;;;;5032600;28;20417;-64
2021/06/02 07:08:27;;;;;;;3.80;3.50;;;21.20;90.60;;;;;;5032708;28;20173;-63
2021/06/02 07:10:53;;;;;;;5.43;3.80;;;21.70;90.10;;;;;;5032052;28;20428;-63
2021/06/02 07:13:21;;;;;;;3.47;3.00;;;21.90;88.50;;;;;;5012912;28;20464;-64
2021/06/02 07:15:46;;;;;;;3.60;3.33;;;22.20;83.40;;;;;;5013042;28;20258;-63
2021/06/02 07:18:18;;;;;;;4.60;3.37;;;22.40;81.30;;;;;;5013160;28;20509;-64
2021/06/02 07:20:44;;;;;;;4.40;4.00;;;22.70;81.70;;;;;;5011965;28;20229;-63
2021/06/02 07:23:10;;;;;;;5.97;4.23;;;22.80;79.90;;;;;;5024835;28;20415;-63
2021/06/02 07:25:36;;;;;;;4.60;4.10;;;22.80;79.40;;;;;;5032448;28;20846;-63
2021/06/02 07:28:07;;;;;;;12.27;4.60;;;22.90;80.00;;;;;;5032293;28;20467;-63
2021/06/02 07:30:33;;;;;;;5.07;3.90;;;23.00;76.70;;;;;;5031747;28;20550;-65
2021/06/02 07:32:59;;;;;;;7.70;3.73;;;23.00;74.60;;;;;;5015197;28;20817;-64
2021/06/02 07:35:25;;;;;;;6.67;3.90;;;23.40;73.70;;;;;;5012242;28;20453;-63
2021/06/02 07:37:51;;;;;;;6.43;3.17;;;23.70;73.50;;;;;;5012497;28;20171;-64
2021/06/02 07:40:17;;;;;;;6.40;3.73;;;23.90;73.00;;;;;;5011702;28;20679;-63
2021/06/02 07:42:42;;;;;;;4.57;3.60;;;23.60;71.50;;;;;;5011173;28;20273;-64
2021/06/02 07:45:08;;;;;;;10.60;3.67;;;23.50;71.80;;;;;;5012361;28;21054;-64
2021/06/02 07:47:34;;;;;;;4.20;3.80;;;23.60;72.50;;;;;;5012196;28;20569;-64
2021/06/02 07:49:59;;;;;;;4.03;3.60;;;23.70;71.10;;;;;;5011577;28;20426;-64
2021/06/02 07:52:26;;;;;;;6.43;3.93;;;23.70;70.70;;;;;;5018376;28;20226;-64
2021/06/02 07:54:52;;;;;;;5.27;3.47;;;23.40;70.00;;;;;;5031820;28;20195;-64
2021/06/02 07:57:17;;;;;;;4.27;3.83;;;23.40;71.40;;;;;;5031706;28;20421;-65
2021/06/02 07:59:43;;;;;;;5.17;3.50;;;23.40;70.80;;;;;;5031153;28;20178;-63
2021/06/02 08:02:09;;;;;;;4.13;3.73;;;23.40;70.10;;;;;;5020659;28;20175;-64
2021/06/02 08:04:34;;;;;;;3.80;3.50;;;23.80;69.70;;;;;;5011934;28;20195;-64
2021/06/02 08:07:01;;;;;;;6.83;4.60;;;24.00;68.30;;;;;;5011812;28;20183;-63
2021/06/02 08:09:27;;;;;;;7.47;3.67;;;24.40;66.90;;;;;;5011128;28;20167;-64
2021/06/02 08:11:53;;;;;;;3.83;3.50;;;24.70;64.70;;;;;;5012891;28;20860;-64
2021/06/02 08:14:19;;;;;;;6.60;3.70;;;24.80;62.70;;;;;;5031270;28;20961;-64
2021/06/02 08:16:45;;;;;;;6.27;3.80;;;25.00;62.90;;;;;;5031345;28;20420;-63
2021/06/02 08:19:11;;;;;;;4.70;3.87;;;25.30;63.10;;;;;;5030875;28;20945;-65
2021/06/02 08:21:38;;;;;;;9.50;5.03;;;25.60;62.30;;;;;;5026269;28;20460;-64
2021/06/02 08:24:04;;;;;;;3.53;3.23;;;25.40;61.00;;;;;;5030121;28;20285;-64
2021/06/02 08:26:36;;;;;;;5.20;3.63;;;25.10;60.80;;;;;;5031836;28;20412;-64
2021/06/02 08:29:03;;;;;;;10.70;3.37;;;24.70;62.90;;;;;;5046084;28;21029;-64
2021/06/02 08:31:29;;;;;;;4.10;3.27;;;25.00;61.80;;;;;;5026544;28;20472;-63
2021/06/02 08:33:54;;;;;;;3.30;3.00;;;25.30;59.80;;;;;;5030020;28;20960;-64
2021/06/02 08:36:20;;;;;;;11.17;3.77;;;25.00;58.20;;;;;;5031148;28;20655;-64
2021/06/02 08:38:45;;;;;;;4.10;2.90;;;25.20;58.50;;;;;;5030223;28;20182;-64
2021/06/02 08:41:12;;;;;;;4.00;3.60;;;25.40;60.10;;;;;;5030248;28;20193;-66
2021/06/02 08:43:37;;;;;;;3.30;3.03;;;25.80;59.80;;;;;;5028982;28;20607;-64
2021/06/02 08:46:04;;;;;;;3.63;3.33;;;26.20;57.50;;;;;;5030859;28;20417;-65
2021/06/02 08:48:29;;;;;;;7.00;3.53;;;26.60;54.90;;;;;;5031002;28;20586;-66
2021/06/02 08:50:55;;;;;;;5.23;3.30;;;27.00;53.30;;;;;;5007617;28;20441;-65
2021/06/02 08:53:21;;;;;;;5.10;3.87;;;27.20;53.10;;;;;;5005172;28;20245;-64
2021/06/02 08:55:47;;;;;;;4.70;3.30;;;26.80;52.60;;;;;;5007722;28;20175;-65
2021/06/02 08:58:21;;;;;;;3.83;3.43;;;26.90;52.60;;;;;;5010210;28;20233;-64
2021/06/02 09:00:47;;;;;;;3.23;2.93;;;26.90;50.70;;;;;;5009300;28;20912;-65
2021/06/02 09:03:13;;;;;;;3.67;3.37;;;26.90;48.30;;;;;;5007338;28;20434;-65
2021/06/02 09:05:39;;;;;;;3.40;3.10;;;27.00;49.30;;;;;;5010883;28;20450;-64
2021/06/02 09:08:07;;;;;;;3.97;3.63;;;26.70;50.00;;;;;;5011034;28;20202;-64
2021/06/02 09:10:41;;;;;;;4.80;3.43;;;26.40;50.40;;;;;;5010444;28;20422;-65
2021/06/02 09:13:38;;;;;;;3.50;3.20;;;26.50;50.80;;;;;;5009347;28;20552;-65
2021/06/02 09:16:28;;;;;;;4.33;3.13;;;26.80;51.40;;;;;;4998393;28;20943;-65
2021/06/02 09:19:05;;;;;;;3.43;3.23;;;27.00;50.80;;;;;;5010163;28;20422;-63
2021/06/02 09:21:31;;;;;;;6.00;3.17;;;26.60;50.90;;;;;;5009511;28;20823;-65
2021/06/02 09:23:58;;;;;;;5.03;3.50;;;26.60;50.50;;;;;;5013335;28;20793;-64
2021/06/02 09:26:27;;;;;;;3.80;3.50;;;26.70;50.20;;;;;;5010915;28;20471;-64
2021/06/02 09:29:00;;;;;;;3.90;3.47;;;26.90;49.40;;;;;;5009975;28;20512;-64
2021/06/02 09:31:36;;;;;;;3.97;3.67;;;27.20;49.00;;;;;;5009654;28;20890;-64
2021/06/02 09:34:03;;;;;;;3.20;3.00;;;27.20;47.70;;;;;;5026379;28;20556;-65
2021/06/02 09:36:39;;;;;;;5.20;4.80;;;27.40;47.60;;;;;;5030371;28;20413;-65
2021/06/02 09:39:10;;;;;;;3.10;2.80;;;27.90;47.70;;;;;;5030289;28;20419;-65
2021/06/02 09:41:47;;;;;;;9.53;3.57;;;28.20;47.70;;;;;;5025973;28;20440;-64
2021/06/02 09:44:21;;;;;;;4.30;3.47;;;28.40;47.50;;;;;;5033124;28;20476;-64
2021/06/02 09:47:04;;;;;;;7.80;7.10;;;28.50;46.50;;;;;;5034200;28;20964;-64
2021/06/02 09:49:51;;;;;;;4.13;3.83;;;28.80;47.50;;;;;;5033925;28;20771;-66
2021/06/02 09:52:18;;;;;;;5.50;3.60;;;29.20;46.60;;;;;;5028845;28;21076;-64
2021/06/02 09:54:44;;;;;;;6.17;3.40;;;29.60;45.30;;;;;;5033989;28;20454;-64
2021/06/02 09:57:14;;;;;;;5.30;2.97;;;30.10;44.00;;;;;;5034345;28;20961;-65
2021/06/02 09:59:53;;;;;;;3.23;3.00;;;30.50;44.00;;;;;;5026992;28;20439;-66
2021/06/02 10:02:19;;;;;;;3.43;3.23;;;31.00;42.90;;;;;;5029995;28;20423;-66
2021/06/02 10:04:56;;;;;;;3.10;2.90;;;31.00;42.00;;;;;;5033007;28;20448;-64
2021/06/02 10:07:22;;;;;;;4.53;3.97;;;30.90;42.00;;;;;;5033995;28;20185;-64
2021/06/02 10:09:48;;;;;;;3.37;3.07;;;31.40;41.70;;;;;;5033274;28;20420;-65
2021/06/02 10:12:14;;;;;;;3.97;3.67;;;31.40;41.40;;;;;;5028765;28;20202;-66
2021/06/02 10:14:57;;;;;;;3.37;3.10;;;31.50;40.90;;;;;;5033011;28;20213;-66
2021/06/02 10:17:37;;;;;;;5.77;4.20;;;32.00;41.00;;;;;;5032830;28;20425;-65
2021/06/02 10:20:06;;;;;;;6.50;3.80;;;31.90;40.30;;;;;;5033041;28;20512;-65
2021/06/02 10:22:31;;;;;;;4.13;3.50;;;32.40;40.30;;;;;;5028512;28;20426;-66
2021/06/02 10:25:00;;;;;;;4.70;2.80;;;33.20;38.80;;;;;;5033924;28;20444;-66
2021/06/02 10:27:27;;;;;;;3.40;3.10;;;34.00;38.40;;;;;;5034005;28;20594;-65
2021/06/02 10:29:53;;;;;;;4.90;3.10;;;34.20;37.90;;;;;;5032859;28;20420;-65
2021/06/02 10:32:20;;;;;;;3.97;3.77;;;34.30;37.00;;;;;;5022019;28;20468;-65
2021/06/02 10:34:46;;;;;;;4.17;3.77;;;34.20;36.70;;;;;;5013459;28;20544;-66
2021/06/02 10:37:17;;;;;;;3.70;3.47;;;35.10;36.80;;;;;;5013619;28;20471;-65
2021/06/02 10:39:58;;;;;;;4.80;3.33;;;34.90;35.30;;;;;;5013139;28;20414;-65
2021/06/02 10:42:50;;;;;;;3.93;3.03;;;33.10;36.50;;;;;;5011944;28;20464;-66
2021/06/02 10:45:29;;;;;;;3.93;3.63;;;33.10;37.30;;;;;;5010282;28;20457;-65
2021/06/02 10:48:00;;;;;;;3.37;3.17;;;33.80;36.90;;;;;;5013325;28;20422;-66
2021/06/02 10:50:30;;;;;;;4.10;3.80;;;35.00;35.40;;;;;;5012981;28;20417;-64
2021/06/02 10:52:56;;;;;;;3.30;3.10;;;35.90;35.20;;;;;;5011672;28;20454;-65
2021/06/02 10:55:39;;;;;;;3.07;2.87;;;34.20;34.40;;;;;;5012270;28;20444;-64
2021/06/02 10:58:13;;;;;;;3.10;2.80;;;34.90;35.40;;;;;;5013352;28;20241;-66
2021/06/02 11:00:39;;;;;;;3.53;3.10;;;35.50;35.00;;;;;;5012320;28;20480;-65
2021/06/02 11:03:20;;;;;;;4.10;3.70;;;36.80;33.60;;;;;;5018480;28;20927;-65
2021/06/02 11:05:46;;;;;;;3.97;3.23;;;36.30;35.20;;;;;;5014804;28;20807;-65
2021/06/02 11:08:11;;;;;;;8.13;3.53;;;37.20;46.20;;;;;;5010574;28;20433;-65
2021/06/02 11:10:38;;;;;;;3.80;3.03;;;38.30;45.90;;;;;;5017622;28;20534;-66
2021/06/02 11:13:05;;;;;;;4.07;3.73;;;37.90;45.50;;;;;;5009204;28;20759;-66
2021/06/02 11:15:31;;;;;;;3.60;3.30;;;38.10;45.40;;;;;;5009390;28;20528;-64
2021/06/02 11:18:08;;;;;;;3.87;3.57;;;37.70;45.10;;;;;;5009490;28;20505;-66
2021/06/02 11:21:00;;;;;;;3.63;3.37;;;36.60;45.90;;;;;;5009251;28;20264;-65
2021/06/02 11:23:36;;;;;;;3.77;3.47;;;36.40;46.50;;;;;;5020682;28;20506;-65
2021/06/02 11:26:24;;;;;;;3.93;3.10;;;37.20;46.00;;;;;;5009373;28;20429;-65
2021/06/02 11:28:50;;;;;;;3.73;3.30;;;37.80;45.10;;;;;;5008365;28;20426;-65
2021/06/02 11:31:29;;;;;;;3.63;3.43;;;38.10;45.40;;;;;;5008621;28;20424;-65
2021/06/02 11:34:24;;;;;;;5.67;5.17;;;37.90;45.60;;;;;;5008839;28;20265;-66
2021/06/02 11:37:07;;;;;;;3.40;3.10;;;39.50;47.60;;;;;;5009045;28;20424;-66
2021/06/02 11:39:34;;;;;;;11.10;3.53;;;40.30;41.30;;;;;;5008480;28;20973;-65
2021/06/02 11:42:00;;;;;;;3.57;3.37;;;41.20;36.40;;;;;;5008017;28;20437;-65
2021/06/02 11:44:27;;;;;;;3.30;3.10;;;40.70;36.50;;;;;;5024700;28;20459;-65
2021/06/02 11:46:53;;;;;;;3.70;3.40;;;41.20;35.20;;;;;;5029108;28;20420;-66
2021/06/02 11:49:33;;;;;;;3.60;3.30;;;40.90;34.40;;;;;;5026429;28;20435;-66
2021/06/02 11:52:13;;;;;;;4.00;3.40;;;40.80;34.00;;;;;;5020134;28;20199;-65
2021/06/02 11:54:49;;;;;;;4.20;3.33;;;41.10;33.60;;;;;;5008701;28;20441;-65
2021/06/02 11:57:30;;;;;;;4.63;3.23;;;42.00;32.50;;;;;;5008736;28;20979;-66
2021/06/02 11:59:57;;;;;;;3.70;3.40;;;42.80;32.00;;;;;;5010571;28;20504;-66
2021/06/02 12:02:22;;;;;;;6.97;3.70;;;42.40;30.20;;;;;;5024282;28;20421;-65
2021/06/02 12:04:48;;;;;;;4.73;3.10;;;41.80;30.50;;;;;;5026868;28;20445;-65
2021/06/02 12:07:25;;;;;;;3.30;3.10;;;41.90;30.60;;;;;;5028183;28;20268;-65
2021/06/02 12:09:56;;;;;;;3.50;3.13;;;42.10;29.80;;;;;;5027850;28;20224;-65
2021/06/02 12:12:23;;;;;;;4.43;3.13;;;41.90;30.00;;;;;;5023633;28;20496;-65
2021/06/02 12:14:52;;;;;;;3.60;3.37;;;41.80;28.00;;;;;;5027697;28;20520;-65
2021/06/02 12:17:19;;;;;;;4.40;2.60;;;41.20;28.10;;;;;;5028234;28;20455;-65
2021/06/02 12:19:47;;;;;;;3.90;3.57;;;40.80;28.50;;;;;;5027582;28;20451;-65
2021/06/02 12:22:14;;;;;;;3.43;3.13;;;40.60;28.40;;;;;;5017209;28;20424;-66
2021/06/02 12:24:40;;;;;;;3.27;3.00;;;40.80;27.90;;;;;;5007637;28;20452;-65
2021/06/02 12:27:12;;;;;;;3.80;3.40;;;39.90;27.70;;;;;;5008504;28;20833;-65
2021/06/02 12:29:38;;;;;;;3.10;2.90;;;39.20;28.00;;;;;;5007633;28;20167;-66
2021/06/02 12:32:04;;;;;;;3.83;3.63;;;38.50;29.00;;;;;;5020908;28;20469;-68
2021/06/02 12:34:32;;;;;;;5.00;3.57;;;39.00;28.40;;;;;;5038322;23;20287;-64
2021/06/02 12:37:01;;;;;;;3.27;2.97;;;38.80;28.80;;;;;;5027700;28;20713;-64
2021/06/02 12:39:34;;;;;;;3.70;3.40;;;39.70;28.40;;;;;;5027141;28;21015;-64
2021/06/02 12:42:08;;;;;;;3.90;3.70;;;40.60;28.00;;;;;;5025212;28;21056;-64
2021/06/02 12:44:40;;;;;;;3.97;3.50;;;41.60;27.90;;;;;;5027010;28;20506;-64
2021/06/02 12:47:09;;;;;;;4.00;2.73;;;41.40;27.50;;;;;;5027674;28;20431;-65
2021/06/02 12:49:43;;;;;;;4.37;3.33;;;41.30;27.80;;;;;;5027114;28;20423;-65
2021/06/02 12:52:10;;;;;;;3.90;3.60;;;42.30;27.90;;;;;;5024282;28;20452;-64
2021/06/02 12:54:37;;;;;;;3.27;3.07;;;42.60;27.10;;;;;;5027370;28;20448;-65
2021/06/02 12:57:03;;;;;;;4.63;4.30;;;41.30;26.90;;;;;;5027805;28;20413;-64
2021/06/02 12:59:31;;;;;;;3.37;3.17;;;41.30;27.00;;;;;;5026771;28;20433;-65
2021/06/02 13:02:01;;;;;;;4.90;3.37;;;40.50;27.40;;;;;;5024650;28;20435;-64
2021/06/02 13:04:27;;;;;;;3.93;3.40;;;39.70;27.80;;;;;;5027138;28;20455;-65
2021/06/02 13:06:55;;;;;;;3.97;3.67;;;40.00;27.60;;;;;;5027363;28;20424;-64
2021/06/02 13:09:22;;;;;;;3.33;3.00;;;40.20;27.20;;;;;;5026742;28;20428;-64
2021/06/02 13:11:49;;;;;;;3.60;2.90;;;40.00;27.40;;;;;;5025073;28;20457;-64
2021/06/02 13:14:15;;;;;;;3.70;3.50;;;39.60;27.50;;;;;;5026255;28;20453;-64
2021/06/02 13:16:54;;;;;;;3.60;2.80;;;39.30;27.60;;;;;;5026206;28;20436;-64
2021/06/02 13:19:45;;;;;;;4.03;3.70;;;38.60;27.90;;;;;;5025810;28;20166;-64
2021/06/02 13:22:19;;;;;;;4.50;4.20;;;38.20;28.10;;;;;;5023290;28;20421;-64
2021/06/02 13:24:44;;;;;;;3.10;2.80;;;38.60;28.10;;;;;;5025675;28;20444;-65
2021/06/02 13:27:21;;;;;;;3.10;2.80;;;38.20;28.60;;;;;;5025158;28;21196;-64
2021/06/02 13:30:06;;;;;;;5.97;3.80;;;37.20;28.70;;;;;;5026814;28;20189;-65